Time;durP1;ratioP1;P1;durP2;ratioP2;P2;SDS_P1;SDS_P2;PMS_P1;PMS_P2;Temp;Humidity;BMP_temperature;BMP_pressure;BME280_temperature;BME280_humidity;BME280_pressure;Samples;Min_cycle;Max_cycle;Signal;HPM_P1;HPM_P2
2020/12/05 00:02:20;;;;;;;3.60;3.03;;;3.40;99.90;;;;;;5070646;28;20258;-71
2020/12/05 00:04:47;;;;;;;5.10;3.43;;;3.40;99.90;;;;;;5070326;28;20259;-79
2020/12/05 00:07:14;;;;;;;7.37;4.50;;;3.40;99.90;;;;;;5070955;28;20205;-69
2020/12/05 00:09:41;;;;;;;5.13;4.07;;;3.40;99.90;;;;;;5070465;28;20234;-69
2020/12/05 00:12:09;;;;;;;6.17;3.87;;;3.30;99.90;;;;;;5069788;28;20677;-80
2020/12/05 00:14:36;;;;;;;5.00;3.97;;;3.20;99.90;;;;;;5069921;28;20210;-71
2020/12/05 00:17:03;;;;;;;5.47;4.33;;;3.20;99.90;;;;;;5069824;28;20202;-70
2020/12/05 00:19:30;;;;;;;5.60;3.87;;;3.20;99.90;;;;;;5070083;28;20210;-69
2020/12/05 00:21:57;;;;;;;4.73;4.23;;;3.20;99.90;;;;;;5069790;28;20206;-69
2020/12/05 00:24:25;;;;;;;7.00;4.60;;;3.20;99.90;;;;;;5070427;28;20210;-71
2020/12/05 00:26:52;;;;;;;5.40;4.40;;;3.20;99.90;;;;;;5069537;28;20209;-71
2020/12/05 00:29:18;;;;;;;7.80;5.83;;;3.00;99.90;;;;;;5069934;28;20774;-69
2020/12/05 00:31:49;;;;;;;5.60;4.97;;;2.90;99.90;;;;;;5070121;28;20206;-71
2020/12/05 00:34:15;;;;;;;5.30;4.43;;;2.90;99.90;;;;;;5070408;28;20206;-71
2020/12/05 00:36:42;;;;;;;4.63;4.13;;;2.90;99.90;;;;;;5069870;28;20672;-71
2020/12/05 00:39:09;;;;;;;4.43;3.90;;;3.00;99.90;;;;;;5069909;28;20209;-74
2020/12/05 00:41:36;;;;;;;5.33;4.13;;;3.00;99.90;;;;;;5070266;28;20214;-77
2020/12/05 00:44:02;;;;;;;6.17;4.80;;;3.10;99.90;;;;;;5069332;28;20614;-76
2020/12/05 00:46:29;;;;;;;5.23;4.50;;;3.10;99.90;;;;;;5070049;28;20217;-77
2020/12/05 00:48:55;;;;;;;5.10;4.00;;;3.00;99.90;;;;;;5069255;28;20723;-77
2020/12/05 00:51:22;;;;;;;4.90;4.23;;;3.00;99.90;;;;;;5069615;28;20206;-69
2020/12/05 00:53:48;;;;;;;5.67;5.00;;;3.00;99.90;;;;;;5069761;28;20206;-76
2020/12/05 00:56:20;;;;;;;5.00;4.33;;;3.00;99.90;;;;;;5070242;28;20203;-79
2020/12/05 00:58:46;;;;;;;6.67;4.33;;;2.90;99.90;;;;;;5070031;28;20203;-70
2020/12/05 01:01:13;;;;;;;4.93;4.37;;;2.60;99.90;;;;;;5071461;28;20210;-70
2020/12/05 01:03:39;;;;;;;4.80;4.30;;;2.70;99.90;;;;;;5073515;28;20251;-79
2020/12/05 01:06:09;;;;;;;4.57;4.10;;;2.80;99.90;;;;;;5072582;28;20630;-76
2020/12/05 01:08:39;;;;;;;5.20;3.70;;;2.70;99.90;;;;;;5073321;28;20206;-80
2020/12/05 01:11:10;;;;;;;5.33;3.97;;;2.80;99.90;;;;;;5072767;28;20210;-75
2020/12/05 01:13:37;;;;;;;4.40;3.60;;;2.90;99.90;;;;;;5073133;28;20743;-75
2020/12/05 01:16:03;;;;;;;3.87;3.57;;;2.90;99.90;;;;;;5072873;28;20636;-71
2020/12/05 01:18:30;;;;;;;4.00;3.00;;;2.90;99.90;;;;;;5072868;28;20749;-72
2020/12/05 01:20:56;;;;;;;4.60;3.03;;;2.90;99.90;;;;;;5072751;28;20206;-72
2020/12/05 01:23:23;;;;;;;5.60;3.77;;;2.80;99.90;;;;;;5072921;28;20256;-68
2020/12/05 01:25:49;;;;;;;3.77;2.83;;;2.80;99.90;;;;;;5072943;28;20646;-72
2020/12/05 01:28:15;;;;;;;3.37;2.90;;;2.80;99.90;;;;;;5072794;28;20213;-68
2020/12/05 01:30:43;;;;;;;4.50;2.93;;;2.90;99.90;;;;;;5073625;28;20230;-68
2020/12/05 01:33:09;;;;;;;3.47;2.43;;;2.80;99.90;;;;;;5072790;28;20206;-72
2020/12/05 01:35:36;;;;;;;3.37;2.70;;;2.90;99.90;;;;;;5072809;28;20209;-72
2020/12/05 01:38:02;;;;;;;4.23;2.17;;;2.90;99.90;;;;;;5072390;28;20213;-71
2020/12/05 01:40:28;;;;;;;2.90;2.47;;;2.90;99.90;;;;;;5072497;28;20739;-74
2020/12/05 01:42:55;;;;;;;3.33;2.47;;;2.90;99.90;;;;;;5072338;28;20673;-68
2020/12/05 01:45:21;;;;;;;2.67;2.43;;;3.00;99.90;;;;;;5072467;28;20207;-74
2020/12/05 01:47:49;;;;;;;3.47;3.03;;;3.00;99.90;;;;;;5072367;28;20210;-70
2020/12/05 01:50:16;;;;;;;4.63;2.77;;;3.00;99.90;;;;;;5072261;28;20283;-69
2020/12/05 01:52:44;;;;;;;3.90;3.10;;;2.90;99.90;;;;;;5072851;28;20206;-75
2020/12/05 01:55:10;;;;;;;5.13;2.87;;;2.90;99.90;;;;;;5071943;28;20225;-69
2020/12/05 01:57:37;;;;;;;6.30;2.60;;;2.80;99.90;;;;;;5072162;28;20575;-75
2020/12/05 02:00:05;;;;;;;3.47;3.17;;;2.70;99.90;;;;;;5072234;28;20205;-75
2020/12/05 02:02:31;;;;;;;4.17;3.20;;;2.60;99.90;;;;;;5072669;28;20256;-69
2020/12/05 02:05:08;;;;;;;3.43;3.03;;;2.60;99.90;;;;;;5071604;28;20202;-69
2020/12/05 02:07:46;;;;;;;3.53;2.80;;;2.70;99.90;;;;;;5072317;28;20198;-69
2020/12/05 02:10:19;;;;;;;3.93;3.10;;;2.80;99.90;;;;;;5059268;28;20638;-69
2020/12/05 02:12:50;;;;;;;8.00;3.47;;;2.70;99.90;;;;;;5071279;28;20206;-69
2020/12/05 02:15:23;;;;;;;3.20;2.90;;;2.70;99.90;;;;;;5072183;28;20287;-69
2020/12/05 02:17:57;;;;;;;3.43;3.13;;;3.00;99.90;;;;;;5071381;28;20212;-73
2020/12/05 02:20:26;;;;;;;4.73;3.03;;;3.30;99.90;;;;;;5059013;28;20314;-68
2020/12/05 02:22:52;;;;;;;4.77;3.33;;;3.50;99.90;;;;;;5071739;28;20264;-73
2020/12/05 02:25:20;;;;;;;2.83;2.47;;;3.60;99.90;;;;;;5071864;28;20202;-72
2020/12/05 02:27:47;;;;;;;3.83;2.70;;;3.70;99.90;;;;;;5071960;28;20206;-75
2020/12/05 02:30:14;;;;;;;5.57;3.80;;;3.80;99.90;;;;;;5072079;28;20225;-72
2020/12/05 02:32:40;;;;;;;3.47;2.80;;;3.80;99.90;;;;;;5071401;28;20230;-72
2020/12/05 02:35:07;;;;;;;3.87;3.23;;;3.80;99.90;;;;;;5071285;28;20259;-73
2020/12/05 02:37:38;;;;;;;3.50;3.07;;;3.70;99.90;;;;;;5071795;28;20210;-69
2020/12/05 02:40:04;;;;;;;3.47;3.10;;;3.60;99.90;;;;;;5071327;28;20263;-73
2020/12/05 02:42:34;;;;;;;3.70;3.10;;;3.80;99.90;;;;;;5071733;28;20637;-69
2020/12/05 02:45:01;;;;;;;3.93;3.17;;;3.90;99.90;;;;;;5071070;28;20210;-70
2020/12/05 02:47:27;;;;;;;3.90;3.23;;;4.00;99.90;;;;;;5071056;28;20244;-74
2020/12/05 02:49:54;;;;;;;4.37;3.83;;;4.10;99.90;;;;;;5070887;28;20705;-68
2020/12/05 02:52:20;;;;;;;4.43;3.00;;;4.20;99.90;;;;;;5071333;28;20245;-69
2020/12/05 02:54:46;;;;;;;4.63;3.57;;;4.20;99.90;;;;;;5071308;28;20203;-70
2020/12/05 02:57:13;;;;;;;3.07;2.87;;;4.10;99.90;;;;;;5071604;28;20206;-69
2020/12/05 02:59:40;;;;;;;3.57;2.67;;;4.00;99.90;;;;;;5071117;28;20210;-72
2020/12/05 03:02:07;;;;;;;3.23;2.93;;;4.20;99.90;;;;;;5070984;28;20206;-71
2020/12/05 03:04:33;;;;;;;3.27;2.73;;;4.20;99.90;;;;;;5071170;28;20335;-71
2020/12/05 03:07:05;;;;;;;3.17;2.40;;;4.20;99.90;;;;;;5070718;28;20738;-70
2020/12/05 03:09:31;;;;;;;4.23;3.10;;;4.10;99.90;;;;;;5068003;28;20237;-69
2020/12/05 03:11:58;;;;;;;3.67;2.53;;;4.20;99.90;;;;;;5090738;28;20217;-71
2020/12/05 03:14:24;;;;;;;3.87;2.60;;;4.20;99.90;;;;;;5090871;28;20210;-69
2020/12/05 03:16:51;;;;;;;2.67;2.40;;;4.20;99.90;;;;;;5090304;28;20258;-69
2020/12/05 03:19:18;;;;;;;3.63;3.23;;;4.10;99.90;;;;;;5091204;28;20205;-69
2020/12/05 03:21:44;;;;;;;4.73;3.87;;;4.10;99.90;;;;;;5091591;28;20201;-69
2020/12/05 03:24:11;;;;;;;4.33;3.17;;;4.10;99.90;;;;;;5090589;28;20216;-69
2020/12/05 03:26:37;;;;;;;3.70;3.30;;;4.10;99.90;;;;;;5091100;28;20584;-70
2020/12/05 03:29:03;;;;;;;3.93;2.83;;;4.20;99.90;;;;;;5090353;28;20209;-68
2020/12/05 03:31:46;;;;;;;3.90;3.17;;;4.20;99.90;;;;;;5090616;28;20201;-70
2020/12/05 03:34:15;;;;;;;4.97;4.47;;;4.10;99.90;;;;;;5091168;28;20201;-70
2020/12/05 03:36:41;;;;;;;3.57;3.27;;;4.00;99.90;;;;;;5063916;28;20211;-69
2020/12/05 03:39:08;;;;;;;3.67;3.27;;;4.00;99.90;;;;;;5090378;28;20746;-69
2020/12/05 03:41:34;;;;;;;5.93;3.90;;;4.00;99.90;;;;;;5090432;28;20677;-71
2020/12/05 03:44:00;;;;;;;5.83;3.93;;;4.00;99.90;;;;;;5090141;28;20213;-68
2020/12/05 03:46:27;;;;;;;5.70;3.73;;;4.00;99.90;;;;;;5090472;28;20201;-68
2020/12/05 03:48:53;;;;;;;5.83;3.67;;;3.90;99.90;;;;;;5090452;28;20278;-73
2020/12/05 03:51:21;;;;;;;5.53;3.00;;;3.90;99.90;;;;;;5090779;28;20209;-72
2020/12/05 03:53:47;;;;;;;3.53;2.70;;;4.00;99.90;;;;;;5090543;28;20213;-69
2020/12/05 03:56:13;;;;;;;4.10;3.27;;;3.90;99.90;;;;;;5090885;28;20747;-70
2020/12/05 03:58:40;;;;;;;3.63;2.50;;;3.90;99.90;;;;;;5090583;28;20258;-70
2020/12/05 04:01:07;;;;;;;3.03;2.73;;;3.90;99.90;;;;;;5090370;28;20209;-72
2020/12/05 04:03:33;;;;;;;2.80;2.50;;;3.80;99.90;;;;;;5090552;28;20197;-72
2020/12/05 04:06:00;;;;;;;3.97;2.20;;;3.70;99.90;;;;;;5090415;28;20235;-73
2020/12/05 04:08:27;;;;;;;3.43;2.23;;;3.80;99.90;;;;;;5090491;28;20577;-72
2020/12/05 04:10:53;;;;;;;4.73;2.43;;;3.80;99.90;;;;;;5090280;28;20290;-70
2020/12/05 04:13:20;;;;;;;3.40;2.97;;;3.80;99.90;;;;;;5090449;28;20579;-68
2020/12/05 04:15:46;;;;;;;5.70;2.60;;;3.80;99.90;;;;;;5090111;28;20214;-70
2020/12/05 04:18:13;;;;;;;4.77;2.70;;;3.80;99.90;;;;;;5090925;28;20209;-72
2020/12/05 04:20:39;;;;;;;3.27;2.90;;;3.90;99.90;;;;;;5090522;28;20266;-78
2020/12/05 04:23:05;;;;;;;3.60;2.53;;;3.80;99.90;;;;;;5089797;28;20282;-71
2020/12/05 04:25:33;;;;;;;4.00;3.40;;;3.90;99.90;;;;;;5090059;28;20210;-70
2020/12/05 04:27:59;;;;;;;4.10;2.90;;;3.90;99.90;;;;;;5090331;28;20239;-70
2020/12/05 04:30:26;;;;;;;3.30;2.73;;;3.60;99.90;;;;;;5090279;28;20279;-71
2020/12/05 04:32:52;;;;;;;3.33;2.80;;;3.70;99.90;;;;;;5089907;28;20218;-70
2020/12/05 04:35:19;;;;;;;5.47;3.23;;;3.70;99.90;;;;;;5090458;28;20262;-70
2020/12/05 04:37:46;;;;;;;3.43;3.13;;;3.70;99.90;;;;;;5093905;28;20206;-70
2020/12/05 04:40:12;;;;;;;4.10;3.40;;;3.80;99.90;;;;;;5094848;28;20255;-70
2020/12/05 04:42:44;;;;;;;3.90;3.33;;;3.80;99.90;;;;;;5094155;28;20243;-69
2020/12/05 04:45:11;;;;;;;5.27;3.87;;;3.80;99.90;;;;;;5094178;28;20205;-71
2020/12/05 04:47:39;;;;;;;5.03;3.23;;;3.90;99.90;;;;;;5094208;28;20201;-70
2020/12/05 04:50:06;;;;;;;3.10;2.60;;;4.10;99.90;;;;;;5093719;28;20283;-72
2020/12/05 04:52:45;;;;;;;4.00;2.93;;;4.30;99.90;;;;;;5093989;28;20209;-69
2020/12/05 04:55:13;;;;;;;5.97;2.73;;;4.40;99.90;;;;;;5068601;28;20216;-69
2020/12/05 04:57:45;;;;;;;3.80;3.40;;;4.50;99.90;;;;;;5094056;28;20221;-72
2020/12/05 05:00:12;;;;;;;3.03;1.93;;;4.50;99.90;;;;;;5093936;28;20216;-70
2020/12/05 05:02:42;;;;;;;3.13;2.60;;;4.50;99.90;;;;;;5093636;28;20205;-70
2020/12/05 05:05:09;;;;;;;2.37;2.17;;;4.40;99.90;;;;;;5093364;28;20206;-74
2020/12/05 05:07:45;;;;;;;3.57;2.23;;;4.50;99.90;;;;;;5094050;28;20209;-75
2020/12/05 05:10:17;;;;;;;3.47;2.80;;;4.50;99.90;;;;;;5093320;28;20213;-71
2020/12/05 05:12:44;;;;;;;3.83;2.83;;;4.20;99.90;;;;;;5093825;28;20213;-80
2020/12/05 05:15:28;;;;;;;3.30;2.50;;;4.30;99.90;;;;;;5093192;28;20296;-81
2020/12/05 05:17:54;;;;;;;3.93;3.10;;;4.20;99.90;;;;;;5093117;28;20212;-70
2020/12/05 05:20:21;;;;;;;4.47;3.20;;;4.10;99.90;;;;;;5093525;28;20251;-76
2020/12/05 05:22:50;;;;;;;4.53;3.13;;;4.20;99.90;;;;;;5093394;28;20210;-72
2020/12/05 05:25:17;;;;;;;4.10;3.10;;;4.20;99.90;;;;;;5093478;28;20209;-69
2020/12/05 05:27:57;;;;;;;4.00;2.77;;;4.30;99.90;;;;;;5093325;28;20201;-71
2020/12/05 05:30:25;;;;;;;5.60;3.40;;;4.20;99.90;;;;;;5093430;28;20263;-69
2020/12/05 05:33:03;;;;;;;5.73;2.97;;;4.00;99.90;;;;;;5092782;28;20285;-74
2020/12/05 05:35:37;;;;;;;4.60;3.67;;;3.90;99.90;;;;;;5093464;28;20201;-74
2020/12/05 05:38:04;;;;;;;5.30;4.10;;;3.80;99.90;;;;;;5064624;28;20206;-70
2020/12/05 05:40:30;;;;;;;3.77;3.20;;;3.70;99.90;;;;;;5093384;28;20209;-71
2020/12/05 05:42:57;;;;;;;3.90;3.50;;;3.80;99.90;;;;;;5092043;28;20561;-74
2020/12/05 05:45:26;;;;;;;4.50;3.90;;;3.70;99.90;;;;;;5092985;28;20209;-73
2020/12/05 05:47:53;;;;;;;3.93;3.23;;;3.70;99.90;;;;;;5092168;28;20210;-74
2020/12/05 05:50:22;;;;;;;5.20;3.53;;;3.70;99.90;;;;;;5092962;28;20225;-70
2020/12/05 05:52:56;;;;;;;4.03;3.70;;;3.60;99.90;;;;;;5091739;28;20205;-71
2020/12/05 05:55:37;;;;;;;5.37;3.63;;;3.70;99.90;;;;;;5092689;28;20265;-70
2020/12/05 05:58:04;;;;;;;4.27;3.87;;;3.70;99.90;;;;;;5091957;28;20198;-73
2020/12/05 06:00:36;;;;;;;5.73;3.67;;;3.70;99.90;;;;;;5092727;28;20208;-69
2020/12/05 06:03:15;;;;;;;4.23;3.67;;;3.60;99.90;;;;;;5092215;28;20206;-71
2020/12/05 06:05:44;;;;;;;4.33;3.70;;;3.60;99.90;;;;;;5093692;28;20240;-86
2020/12/05 06:08:19;;;;;;;4.07;3.50;;;3.70;99.90;;;;;;5092972;28;20248;-70
2020/12/05 06:10:55;;;;;;;4.23;3.63;;;3.80;99.90;;;;;;5093035;28;20342;-76
2020/12/05 06:13:25;;;;;;;6.07;4.60;;;3.90;99.90;;;;;;5092376;28;20213;-76
2020/12/05 06:15:53;;;;;;;6.83;4.13;;;3.90;99.90;;;;;;5092145;28;20219;-80
2020/12/05 06:18:20;;;;;;;8.17;4.97;;;3.70;99.90;;;;;;5092176;28;20615;-80
2020/12/05 06:20:48;;;;;;;6.10;4.70;;;3.80;99.90;;;;;;5092350;28;20202;-75
2020/12/05 06:23:37;;;;;;;6.30;4.53;;;3.80;99.90;;;;;;5092551;28;20205;-73
2020/12/05 06:26:07;;;;;;;7.23;4.17;;;3.90;99.90;;;;;;5091552;28;20677;-69
2020/12/05 06:28:37;;;;;;;5.53;4.07;;;3.90;99.90;;;;;;5092326;28;20201;-81
2020/12/05 06:31:05;;;;;;;6.10;4.23;;;3.90;99.90;;;;;;5091633;28;20233;-70
2020/12/05 06:33:40;;;;;;;4.83;4.17;;;3.80;99.90;;;;;;5091995;28;20237;-79
2020/12/05 06:36:36;;;;;;;5.83;4.43;;;3.80;99.90;;;;;;5091736;28;20779;-76
2020/12/05 06:39:14;;;;;;;6.53;4.60;;;3.80;99.90;;;;;;5091416;28;20206;-74
2020/12/05 06:41:42;;;;;;;8.07;4.50;;;3.80;99.90;;;;;;5092343;28;20210;-71
2020/12/05 06:44:11;;;;;;;6.30;4.90;;;3.80;99.90;;;;;;5091526;28;20267;-75
2020/12/05 06:46:56;;;;;;;5.93;4.37;;;3.80;99.90;;;;;;5064914;28;20201;-72
2020/12/05 06:49:45;;;;;;;8.43;4.97;;;3.70;99.90;;;;;;5091436;28;20231;-72
2020/12/05 06:52:40;;;;;;;6.00;4.40;;;3.70;99.90;;;;;;5091886;28;20205;-76
2020/12/05 06:55:12;;;;;;;6.30;4.07;;;3.70;99.90;;;;;;5091210;28;20205;-74
2020/12/05 06:57:41;;;;;;;8.23;4.03;;;3.70;99.90;;;;;;5091810;28;20205;-76
2020/12/05 07:00:22;;;;;;;4.20;3.80;;;3.80;99.90;;;;;;5090844;28;20209;-81
2020/12/05 07:02:57;;;;;;;4.83;3.10;;;3.70;99.90;;;;;;5090998;28;20246;-80
2020/12/05 07:05:39;;;;;;;3.73;2.83;;;3.70;99.90;;;;;;5091588;28;20262;-69
2020/12/05 07:08:29;;;;;;;6.63;4.40;;;3.60;99.90;;;;;;5090659;28;20722;-68
2020/12/05 07:10:58;;;;;;;5.27;3.60;;;3.90;99.90;;;;;;5091058;28;20274;-78
2020/12/05 07:13:27;;;;;;;5.77;4.00;;;3.80;99.90;;;;;;5091285;28;20263;-80
2020/12/05 07:16:09;;;;;;;5.13;4.00;;;3.70;99.90;;;;;;5090932;28;20209;-79
2020/12/05 07:18:38;;;;;;;7.23;3.77;;;3.70;99.90;;;;;;5090935;28;21172;-69
2020/12/05 07:21:06;;;;;;;4.27;3.57;;;3.70;99.90;;;;;;5090863;28;20209;-76
2020/12/05 07:23:32;;;;;;;5.43;3.70;;;3.70;99.90;;;;;;5091145;28;20213;-75
2020/12/05 07:26:00;;;;;;;5.40;4.30;;;3.50;99.90;;;;;;5090717;28;20202;-71
2020/12/05 07:28:26;;;;;;;4.13;3.73;;;3.40;99.90;;;;;;5091164;28;20201;-70
2020/12/05 07:30:53;;;;;;;5.70;3.63;;;3.30;99.90;;;;;;5090619;28;20232;-70
2020/12/05 07:33:21;;;;;;;5.77;4.50;;;3.40;99.90;;;;;;5090829;28;20218;-72
2020/12/05 07:35:56;;;;;;;5.10;4.00;;;3.30;99.90;;;;;;5073946;28;20237;-69
2020/12/05 07:38:22;;;;;;;8.87;5.10;;;3.20;99.90;;;;;;5079204;28;20273;-73
2020/12/05 07:40:49;;;;;;;5.43;4.37;;;3.20;99.90;;;;;;5081539;28;20206;-74
2020/12/05 07:43:18;;;;;;;6.30;5.27;;;3.10;99.90;;;;;;5089507;28;20577;-70
2020/12/05 07:45:46;;;;;;;7.77;5.30;;;3.10;99.90;;;;;;5088132;28;20205;-74
2020/12/05 07:48:14;;;;;;;7.17;4.57;;;3.10;99.90;;;;;;5087853;28;20626;-74
2020/12/05 07:50:41;;;;;;;5.37;4.57;;;3.10;99.90;;;;;;5087106;28;20240;-76
2020/12/05 07:53:33;;;;;;;5.77;3.27;;;3.30;99.90;;;;;;5082144;28;20258;-74
2020/12/05 07:56:12;;;;;;;5.63;3.93;;;3.50;99.90;;;;;;5082508;28;20240;-74
2020/12/05 07:58:44;;;;;;;5.73;5.10;;;3.60;99.90;;;;;;5078186;28;20205;-75
2020/12/05 08:01:16;;;;;;;7.00;5.47;;;3.70;99.90;;;;;;5078025;28;20724;-71
2020/12/05 08:04:09;;;;;;;5.63;4.57;;;3.80;99.90;;;;;;5068277;28;20603;-74
2020/12/05 08:06:53;;;;;;;10.73;6.87;;;3.80;99.90;;;;;;5065456;28;20231;-72
2020/12/05 08:09:29;;;;;;;7.27;5.80;;;3.80;99.90;;;;;;5067179;28;20206;-72
2020/12/05 08:11:56;;;;;;;7.43;4.77;;;4.00;99.90;;;;;;5088099;28;20209;-72
2020/12/05 08:14:23;;;;;;;6.30;4.67;;;4.10;99.90;;;;;;5079152;28;20258;-74
2020/12/05 08:16:53;;;;;;;8.10;4.90;;;4.20;99.90;;;;;;5085541;28;20742;-71
2020/12/05 08:19:22;;;;;;;5.70;4.43;;;4.60;99.90;;;;;;5091290;28;20661;-72
2020/12/05 08:21:49;;;;;;;6.37;4.70;;;4.60;99.90;;;;;;5088277;28;20213;-69
2020/12/05 08:24:15;;;;;;;5.67;5.10;;;4.60;99.90;;;;;;5085622;28;20258;-66
2020/12/05 08:26:43;;;;;;;7.00;4.80;;;4.70;99.90;;;;;;5093716;28;20239;-73
2020/12/05 08:29:10;;;;;;;7.37;4.67;;;4.70;99.90;;;;;;5090834;28;20259;-73
2020/12/05 08:31:40;;;;;;;8.33;5.30;;;4.70;99.90;;;;;;5092559;28;20232;-71
2020/12/05 08:34:07;;;;;;;11.20;6.47;;;4.70;99.90;;;;;;5088275;28;20206;-73
2020/12/05 08:36:35;;;;;;;8.83;5.27;;;4.80;99.90;;;;;;5081795;28;20237;-74
2020/12/05 08:39:06;;;;;;;6.63;4.97;;;5.00;99.90;;;;;;5086724;28;20582;-74
2020/12/05 08:41:42;;;;;;;5.23;4.50;;;6.80;99.90;;;;;;5071259;28;20202;-74
2020/12/05 08:44:13;;;;;;;6.63;4.77;;;7.00;99.90;;;;;;5080632;28;20583;-74
2020/12/05 08:46:40;;;;;;;5.30;4.30;;;7.50;99.90;;;;;;5068215;28;20206;-73
2020/12/05 08:49:17;;;;;;;5.77;4.40;;;8.20;99.90;;;;;;5089025;28;20210;-74
2020/12/05 08:51:47;;;;;;;5.73;4.43;;;7.90;99.90;;;;;;5079697;28;20237;-73
2020/12/05 08:54:13;;;;;;;5.97;4.60;;;7.40;99.90;;;;;;5086205;28;20206;-74
2020/12/05 08:56:40;;;;;;;6.17;4.93;;;7.50;99.90;;;;;;5088159;28;20209;-76
2020/12/05 08:59:07;;;;;;;9.27;5.43;;;7.40;99.90;;;;;;5078206;28;20210;-75
2020/12/05 09:01:39;;;;;;;6.23;5.63;;;9.20;99.90;;;;;;5079712;28;20254;-75
2020/12/05 09:04:05;;;;;;;7.87;6.27;;;9.80;99.90;;;;;;5078966;28;21098;-75
2020/12/05 09:06:32;;;;;;;6.43;5.77;;;10.20;99.90;;;;;;5069150;28;20300;-76
2020/12/05 09:08:59;;;;;;;10.43;9.33;;;8.90;99.90;;;;;;5063869;28;20731;-75
2020/12/05 09:11:25;;;;;;;5.53;4.37;;;8.30;99.90;;;;;;5075114;28;20226;-77
2020/12/05 09:13:52;;;;;;;8.37;5.10;;;8.90;99.90;;;;;;5075977;28;20202;-78
2020/12/05 09:16:32;;;;;;;4.07;3.63;;;10.10;99.90;;;;;;5075732;28;20263;-78
2020/12/05 09:19:00;;;;;;;4.87;3.57;;;9.30;99.90;;;;;;5085773;28;20251;-78
2020/12/05 09:21:27;;;;;;;4.33;3.77;;;11.90;99.90;;;;;;5092799;28;20205;-78
2020/12/05 09:24:00;;;;;;;4.60;3.90;;;13.70;99.90;;;;;;5093152;28;20255;-78
2020/12/05 09:26:26;;;;;;;4.47;2.57;;;12.80;99.90;;;;;;5093481;28;20611;-79
2020/12/05 09:28:53;;;;;;;3.87;2.83;;;13.90;99.90;;;;;;5093171;28;20214;-73
2020/12/05 09:31:19;;;;;;;2.20;2.00;;;13.60;99.90;;;;;;5093294;28;20260;-76
2020/12/05 09:33:46;;;;;;;2.97;2.40;;;11.10;99.90;;;;;;5093395;28;20206;-72
2020/12/05 09:36:15;;;;;;;2.77;1.97;;;11.40;99.90;;;;;;5093241;28;20563;-73
2020/12/05 09:38:42;;;;;;;5.83;2.47;;;12.10;99.90;;;;;;5080838;28;20273;-73
2020/12/05 09:41:08;;;;;;;2.38;1.42;;;13.70;99.90;;;;;;5071108;28;20676;-70
2020/12/05 09:43:34;;;;;;;1.58;1.45;;;13.30;99.90;;;;;;5065198;28;20206;-72
2020/12/05 09:46:01;;;;;;;2.45;1.40;;;15.10;99.90;;;;;;5073885;28;20209;-72
2020/12/05 09:48:27;;;;;;;2.03;1.10;;;14.20;99.90;;;;;;5075135;28;20544;-70
2020/12/05 09:50:54;;;;;;;1.95;1.08;;;12.00;99.90;;;;;;5074005;28;20234;-71
2020/12/05 09:53:21;;;;;;;1.13;1.02;;;10.50;99.90;;;;;;5074994;28;20206;-71
2020/12/05 09:55:47;;;;;;;2.83;1.00;;;10.40;99.90;;;;;;5073244;28;20252;-68
2020/12/05 09:58:14;;;;;;;1.88;1.40;;;10.10;99.90;;;;;;5090635;28;20205;-70
2020/12/05 10:00:40;;;;;;;2.33;0.87;;;9.40;99.90;;;;;;5091770;28;20205;-71
2020/12/05 10:03:07;;;;;;;1.77;1.07;;;9.30;99.90;;;;;;5088142;28;20202;-72
2020/12/05 10:05:34;;;;;;;1.70;1.50;;;9.70;99.90;;;;;;5090068;28;20210;-71
2020/12/05 10:08:00;;;;;;;1.23;0.97;;;11.80;99.90;;;;;;5086281;28;20206;-72
2020/12/05 10:10:27;;;;;;;2.20;1.17;;;15.00;99.90;;;;;;5089567;28;20279;-71
2020/12/05 10:12:54;;;;;;;3.08;2.10;;;15.10;99.90;;;;;;5085988;28;20236;-71
2020/12/05 10:15:21;;;;;;;2.85;2.22;;;15.60;99.90;;;;;;5087362;28;20217;-71
2020/12/05 10:17:48;;;;;;;2.63;2.05;;;16.50;99.90;;;;;;5087599;28;20730;-69
2020/12/05 10:20:15;;;;;;;2.15;1.65;;;16.60;99.90;;;;;;5092185;28;20218;-71
2020/12/05 10:22:41;;;;;;;3.47;1.88;;;17.00;99.90;;;;;;5091454;28;20202;-68
2020/12/05 10:25:07;;;;;;;3.10;1.85;;;17.00;99.90;;;;;;5091276;28;20205;-71
2020/12/05 10:27:35;;;;;;;1.42;1.33;;;16.70;99.90;;;;;;5089515;28;20233;-71
2020/12/05 10:30:01;;;;;;;1.92;1.30;;;16.10;99.90;;;;;;5089570;28;20205;-70
2020/12/05 10:32:27;;;;;;;2.50;1.42;;;14.30;99.90;;;;;;5083962;28;20203;-69
2020/12/05 10:34:54;;;;;;;2.90;1.70;;;15.00;99.90;;;;;;5078683;28;20234;-72
2020/12/05 10:37:20;;;;;;;1.20;0.93;;;15.80;99.90;;;;;;5085834;28;20272;-68
2020/12/05 10:39:47;;;;;;;1.80;1.50;;;14.40;99.90;;;;;;5081460;28;20205;-71
2020/12/05 10:42:13;;;;;;;2.53;1.30;;;10.70;99.90;;;;;;5086236;28;20266;-74
2020/12/05 10:44:40;;;;;;;2.13;1.30;;;9.30;99.90;;;;;;5085772;28;20198;-72
2020/12/05 10:47:07;;;;;;;2.10;1.47;;;8.60;99.90;;;;;;5085277;28;20235;-73
2020/12/05 10:49:33;;;;;;;2.03;1.10;;;8.40;99.90;;;;;;5083285;28;20682;-72
2020/12/05 10:52:00;;;;;;;2.27;1.10;;;8.30;99.90;;;;;;5085773;28;20269;-69
2020/12/05 10:54:26;;;;;;;3.70;1.63;;;8.40;99.90;;;;;;5080681;28;20206;-70
2020/12/05 10:56:52;;;;;;;1.43;1.33;;;8.40;99.90;;;;;;5085102;28;20214;-70
2020/12/05 10:59:19;;;;;;;2.43;2.23;;;8.30;99.90;;;;;;5078854;28;20202;-71
2020/12/05 11:01:48;;;;;;;4.07;1.50;;;8.10;99.90;;;;;;5083571;28;20677;-68
2020/12/05 11:04:15;;;;;;;1.73;1.43;;;8.20;99.90;;;;;;5079565;28;20206;-72
2020/12/05 11:06:41;;;;;;;1.37;0.97;;;8.40;99.90;;;;;;5081442;28;20246;-71
2020/12/05 11:09:07;;;;;;;0.77;0.70;;;8.80;99.90;;;;;;5079076;28;20686;-72
2020/12/05 11:11:34;;;;;;;1.13;0.67;;;8.70;99.90;;;;;;5070195;28;20730;-70
2020/12/05 11:14:00;;;;;;;3.67;0.87;;;8.70;99.90;;;;;;5078610;28;20230;-72
2020/12/05 11:16:27;;;;;;;1.13;0.70;;;9.00;99.90;;;;;;5075273;28;20564;-71
2020/12/05 11:18:54;;;;;;;0.93;0.60;;;9.10;99.90;;;;;;5082850;28;20239;-70
2020/12/05 11:21:20;;;;;;;0.97;0.40;;;9.00;99.90;;;;;;5090395;28;20326;-71
2020/12/05 11:23:47;;;;;;;2.03;1.00;;;9.00;99.90;;;;;;5088866;28;20209;-68
2020/12/05 11:26:20;;;;;;;0.63;0.40;;;9.30;99.90;;;;;;5090468;28;20201;-71
2020/12/05 11:28:46;;;;;;;0.70;0.40;;;9.30;99.90;;;;;;5088422;28;20201;-67
2020/12/05 11:31:13;;;;;;;0.67;0.33;;;9.10;99.90;;;;;;5089052;28;20244;-69
2020/12/05 11:33:39;;;;;;;0.60;0.30;;;9.00;99.90;;;;;;5079208;28;20738;-68
2020/12/05 11:36:07;;;;;;;0.77;0.50;;;8.80;99.90;;;;;;5085246;28;20637;-67
2020/12/05 11:38:33;;;;;;;0.93;0.50;;;8.60;99.90;;;;;;5087798;28;20209;-68
2020/12/05 11:41:00;;;;;;;2.67;0.77;;;8.30;99.90;;;;;;5083167;28;20255;-69
2020/12/05 11:43:26;;;;;;;0.90;0.40;;;8.40;99.90;;;;;;5086608;28;20231;-70
2020/12/05 11:45:52;;;;;;;1.03;0.60;;;8.70;99.90;;;;;;5079871;28;20238;-71
2020/12/05 11:48:19;;;;;;;2.13;1.13;;;8.80;99.90;;;;;;5072075;28;20232;-71
2020/12/05 11:50:45;;;;;;;1.20;0.97;;;8.80;99.90;;;;;;5082299;28;20318;-68
2020/12/05 11:53:12;;;;;;;0.70;0.50;;;9.00;99.90;;;;;;5082348;28;20586;-70
2020/12/05 11:55:39;;;;;;;0.77;0.70;;;9.10;99.90;;;;;;5080689;28;20235;-66
2020/12/05 11:58:05;;;;;;;0.60;0.50;;;9.00;99.90;;;;;;5079375;28;20209;-70
2020/12/05 12:00:32;;;;;;;1.27;0.80;;;9.00;99.90;;;;;;5080679;28;20292;-67
2020/12/05 12:02:58;;;;;;;1.57;1.03;;;8.80;99.90;;;;;;5077097;28;20564;-67
2020/12/05 12:05:24;;;;;;;1.20;0.70;;;8.70;99.90;;;;;;5080732;28;20205;-68
2020/12/05 12:07:51;;;;;;;0.97;0.83;;;8.80;99.90;;;;;;5075221;28;20210;-69
2020/12/05 12:10:19;;;;;;;1.13;0.50;;;8.90;99.90;;;;;;5079741;28;20257;-68
2020/12/05 12:12:45;;;;;;;0.87;0.60;;;9.10;99.90;;;;;;5074938;28;20206;-66
2020/12/05 12:15:13;;;;;;;0.67;0.43;;;9.20;99.90;;;;;;5077795;28;20206;-70
2020/12/05 12:17:40;;;;;;;0.93;0.50;;;9.20;99.90;;;;;;5069952;28;20206;-68
2020/12/05 12:20:06;;;;;;;2.63;0.80;;;9.60;99.90;;;;;;5089371;28;20219;-67
2020/12/05 12:22:33;;;;;;;1.50;0.53;;;9.70;99.90;;;;;;5088159;28;20209;-70
2020/12/05 12:24:59;;;;;;;1.73;0.70;;;9.80;99.90;;;;;;5088702;28;20201;-68
2020/12/05 12:27:26;;;;;;;1.13;1.00;;;9.80;99.90;;;;;;5079161;28;20203;-71
2020/12/05 12:29:53;;;;;;;2.03;0.83;;;9.80;99.90;;;;;;5073640;28;20742;-67
2020/12/05 12:32:19;;;;;;;1.77;0.90;;;9.80;99.90;;;;;;5079442;28;20311;-70
2020/12/05 12:34:46;;;;;;;1.50;1.37;;;9.70;99.90;;;;;;5078883;28;20206;-67
2020/12/05 12:37:12;;;;;;;3.23;1.57;;;9.90;99.90;;;;;;5084385;28;20209;-71
2020/12/05 12:39:38;;;;;;;0.83;0.50;;;9.80;99.90;;;;;;5085319;28;20239;-69
2020/12/05 12:42:05;;;;;;;1.67;0.70;;;10.00;99.90;;;;;;5083641;28;20723;-70
2020/12/05 12:44:32;;;;;;;5.83;0.43;;;10.30;99.90;;;;;;5082121;28;20205;-70
2020/12/05 12:47:10;;;;;;;3.03;1.90;;;10.40;99.90;;;;;;5084225;28;20201;-69
2020/12/05 12:49:37;;;;;;;2.93;1.17;;;10.40;99.90;;;;;;5081596;28;20208;-70
2020/12/05 12:52:05;;;;;;;1.10;0.83;;;10.30;99.90;;;;;;5082165;28;20237;-69
2020/12/05 12:54:31;;;;;;;1.27;0.40;;;10.10;99.90;;;;;;5078805;28;20207;-70
2020/12/05 12:56:58;;;;;;;0.47;0.47;;;10.00;99.90;;;;;;5083667;28;20209;-71
2020/12/05 12:59:25;;;;;;;1.23;0.77;;;9.60;99.90;;;;;;5080458;28;20216;-70
2020/12/05 13:01:53;;;;;;;1.30;0.87;;;9.70;99.90;;;;;;5085381;28;20202;-70
2020/12/05 13:04:20;;;;;;;5.60;0.53;;;9.80;99.90;;;;;;5079750;28;20260;-68